Nearby METAR Reports

 

KMEV - Minden, Nevada, USA
Distance from station: N 3mi, 5km
Updated: Wed, 13-Dec-2017 10:15am PST
Clear
Clear
 Wind from calm
Wind: Calm
Temperature: 27°F , -3°C
Dew Point: 16°F , -9°C
Humidity: 64%
Barometer: 30.39 inHg , 1029.1 hPa
Clouds: Clear
Visibility: 10 miles , 16 km
2017/12/13 18:15 KMEV 131815Z AUTO 00000KT 10SM CLR M03/M09 A3039 RMK AO2
KCXP - Carson City, Nevada, USA
Distance from station: N 10mi, 16km
Updated: Wed, 13-Dec-2017 10:15am PST
Clear
Clear
 Wind from calm
Wind: Calm
Temperature: 30°F , -1°C
Dew Point: 16°F , -9°C
Humidity: 55%
Barometer: 30.39 inHg , 1029.1 hPa
Clouds: Clear
Visibility: 10 miles , 16 km
2017/12/13 18:15 KCXP 131815Z AUTO 00000KT 10SM CLR M01/M09 A3039 RMK AO2
 
KTVL - South Lake Tahoe, California, USA
Distance from station: WSW 18mi, 29km
Updated: Wed, 13-Dec-2017 10:19am PST
Overcast
Overcast
 Wind from ENE
Wind: ENE 5 mph , 7 km/h
Temperature: 28°F , -2°C
Wind Chill: 22°F , -6°C
Dew Point: 27°F , -3°C
Humidity: 93%
Barometer: 30.38 inHg , 1028.8 hPa
Clouds: Overcast
Visibility: 10 miles , 16 km
Cloud details: Overcast 300 ft
2017/12/13 18:19 KTVL 131819Z AUTO 06004KT 10SM OVC003 M02/M03 A3038 RMK AO2 T10171033
KTRK - Truckee Tahoe, California, USA
Distance from station: NW 29mi, 46km
Updated: Wed, 13-Dec-2017 9:45am PST
Few Clouds
Few Clouds
 Wind from calm
Wind: Calm
Temperature: 21°F , -6°C
Dew Point: 21°F , -6°C
Humidity: 100%
Barometer: 30.38 inHg , 1028.8 hPa
Clouds: Few Clouds
Visibility: 10 miles , 16 km
Cloud details: Few Clouds 18000 ft
2017/12/13 17:45 KTRK 131745Z 00000KT 10SM FEW180 M06/M06 A3038
 
KRNO - Reno, Nevada, USA
Distance from station: N 31mi, 50km
Updated: Wed, 13-Dec-2017 9:55am PST
Partly cloudy
Partly cloudy
 Wind from calm
Wind: Calm
Temperature: 28°F , -2°C
Dew Point: 18°F , -8°C
Humidity: 64%
Barometer: 30.39 inHg , 1029.1 hPa
Clouds: Partly cloudy
Visibility: 10 miles , 16 km
Cloud details: Partly cloudy 20000 ft
Partly cloudy 25000 ft
2017/12/13 17:55 KRNO 131755Z 00000KT 10SM SCT200 SCT250 M02/M08 A3039 RMK AO2 SLP312 HZ ALQDS T10221078 11017 21089 50001
KRTS - Reno/Stead, Nevada, USA
Distance from station: NNW 44mi, 71km
Updated: Wed, 13-Dec-2017 10:15am PST
Clear
Clear
 Wind from calm
Wind: Calm
Temperature: 28°F , -2°C
Dew Point: 19°F , -7°C
Humidity: 69%
Barometer: 30.39 inHg , 1029.1 hPa
Clouds: Clear
Visibility: 10 miles , 16 km
2017/12/13 18:15 KRTS 131815Z AUTO 00000KT 10SM CLR M02/M07 A3039 RMK AO2
 
KBLU - Emigrant Gap, California, USA
Distance from station: WNW 55mi, 89km
Updated: Wed, 13-Dec-2017 9:52am PST
Clear
Clear
 Wind from calm
Wind: Calm
Temperature: 66°F , 19°C
Dew Point: -2°F , -19°C
Humidity: 6%
Barometer: 30.27 inHg , 1025.1 hPa
Clouds: Clear
Visibility: 10 miles , 16 km
2017/12/13 17:52 KBLU 131752Z AUTO 00000KT 10SM CLR 19/M19 A3027 RMK AO2 SLP175 T01891194 10189 20139 51001 TSNO
KPVF - Placerville, California, USA
Distance from station: WSW 60mi, 96km
Updated: Wed, 13-Dec-2017 10:15am PST
Clear
Clear
 Wind from calm
Wind: Calm
Temperature: 57°F , 14°C
Dew Point: 27°F , -3°C
Humidity: 31%
Barometer: 30.19 inHg , 1022.4 hPa
Clouds: Clear
Visibility: 10 miles , 16 km
2017/12/13 18:15 KPVF 131815Z AUTO 00000KT 10SM CLR 14/M03 A3019 RMK AO1
 
KNFL - Fallon Nas, Nevada, USA
Distance from station: ENE 61mi, 97km
Updated: Wed, 13-Dec-2017 8:56am PST
NOT Current
Mostly cloudy
Mostly cloudy
 Wind from calm
Wind: Calm
Temperature: 21°F , -6°C
Dew Point: 10°F , -12°C
Humidity: 63%
Barometer: 30.42 inHg , 1030.1 hPa
Clouds: Mostly cloudy
Visibility: 10 miles , 16 km
Cloud details: Partly cloudy 15000 ft
Mostly cloudy 22000 ft
Mostly cloudy 25000 ft
2017/12/13 16:56 KNFL 131656Z 00000KT 10SM SCT150 BKN220 BKN250 M06/M12 A3042 RMK SLP255 T10561117
KGOO - Grass Valley, California, USA
Distance from station: W 70mi, 112km
Updated: Wed, 13-Dec-2017 10:20am PST
Clear
Clear
 Wind from NW
Wind: NW 3 mph , 6 km/h
Temperature: 55°F , 13°C
Dew Point: 19°F , -7°C
Humidity: 24%
Barometer: 30.19 inHg , 1022.4 hPa
Clouds: Clear
Visibility: 10 miles , 16 km
2017/12/13 18:20 KGOO 131820Z AUTO 31003KT 10SM CLR 13/M07 A3019 RMK AO1
 
KAUN - Auburn Muni, California, USA
Distance from station: W 73mi, 118km
Updated: Wed, 13-Dec-2017 10:15am PST
Clear
Clear
 Wind from calm
Wind: Calm
Temperature: 54°F , 12°C
Dew Point: 30°F , -1°C
Humidity: 41%
Barometer: 30.19 inHg , 1022.4 hPa
Clouds: Clear
Visibility: 10 miles , 16 km
2017/12/13 18:15 KAUN 131815Z AUTO 00000KT 10SM CLR 12/M01 A3019 RMK AO1
KO22 - Columbia, California, USA
Distance from station: SSW 79mi, 127km
Updated: Wed, 13-Dec-2017 10:15am PST
Clear
Clear
 Wind from calm
Wind: Calm
Temperature: 61°F , 16°C
Dew Point: 32°F , 0°C
Humidity: 34%
Barometer: 30.18 inHg , 1022 hPa
Clouds: Clear
Visibility: 10 miles , 16 km
2017/12/13 18:15 KO22 131815Z AUTO 00000KT 10SM CLR 16/00 A3018 RMK AO1
 
KLHM - Lincoln, California, USA
Distance from station: W 88mi, 141km
Updated: Wed, 13-Dec-2017 10:15am PST
Clear
Clear
 Wind from calm
Wind: Calm
Temperature: 46°F , 8°C
Dew Point: 37°F , 3°C
Humidity: 71%
Barometer: 30.20 inHg , 1022.7 hPa
Clouds: Clear
Visibility: 10 miles , 16 km
2017/12/13 18:15 KLHM 131815Z AUTO 00000KT 10SM CLR 08/03 A3020 RMK AO1
KBAB - Beale Afb/Marysv, California, USA
Distance from station: W 91mi, 147km
Updated: Wed, 13-Dec-2017 9:58am PST
Clear
Clear
 Wind from calm
Wind: Calm
Temperature: 46°F , 8°C
Dew Point: 39°F , 4°C
Humidity: 76%
Barometer: 30.19 inHg , 1022.4 hPa
Clouds: Clear
Visibility: 10 miles , 16 km
2017/12/13 17:58 KBAB 131758Z 00000KT 10SM CLR 08/04 A3019 RMK AO2A SLP227 T00840041 10084 21006 51004 $
 
KMHR - Mather Field, California, USA
Distance from station: WSW 91mi, 147km
Updated: Wed, 13-Dec-2017 9:45am PST
Clear
Clear
 Wind from NW
Wind: NW 6 mph , 9 km/h
Temperature: 46°F , 8°C
Wind Chill: 43°F , 6°C
Dew Point: 39°F , 4°C
Humidity: 76%
Barometer: 30.20 inHg , 1022.7 hPa
Clouds: Clear
Visibility: 10 miles , 16 km
2017/12/13 17:45 KMHR 131745Z 32005KT 10SM SKC 08/04 A3020
KLOL - Lovelock, Nevada, USA
Distance from station: NE 94mi, 151km
Updated: Wed, 13-Dec-2017 9:53am PST
Clear
Clear
 Wind from W
Wind: W 3 mph , 6 km/h
Temperature: 25°F , -4°C
Dew Point: 16°F , -9°C
Humidity: 69%
Barometer: 30.41 inHg , 1029.8 hPa
Clouds: Clear
Visibility: 10 miles , 16 km
2017/12/13 17:53 KLOL 131753Z AUTO 27003KT 10SM CLR M04/M09 A3041 RMK AO2 SLP342 T10441094 11044 21172 50001 TSNO
 
KMCC - Mcclellan Afb, California, USA
Distance from station: WSW 94mi, 151km
Updated: Wed, 13-Dec-2017 10:10am PST
Clear
Clear
 Wind from NW
Wind: NW 5 mph , 7 km/h
Temperature: 45°F , 7°C
Wind Chill: 42°F , 6°C
Dew Point: 41°F , 5°C
Humidity: 87%
Barometer: 30.23 inHg , 1023.7 hPa
Clouds: Clear
Visibility: 8 miles , 13 km
2017/12/13 18:10 KMCC 131810Z AUTO 31004KT 8SM CLR 07/05 A3023 RMK AO2
KMYV - Marysville, California, USA
Distance from station: W 99mi, 159km
Updated: Wed, 13-Dec-2017 9:53am PST
Clear
Clear
 Wind from calm
Wind: Calm
Temperature: 46°F , 8°C
Dew Point: 43°F , 6°C
Humidity: 87%
Barometer: 30.22 inHg , 1023.4 hPa
Clouds: Clear
Visibility: 10 miles , 16 km
2017/12/13 17:53 KMYV 131753Z AUTO 00000KT 10SM CLR 08/06 A3022 RMK AO2 SLP236 T00830056 10083 21022 51003
Honor Flight NV - Honoring all of our Veterans CoCoRaHS (Community Collaborative Rain, Hail and Snow Network) Station Number: NV-DG-2 Live Lightning Map - USA Reno Skywarn Spotter ID: DO21 AlertID Southwestern Weather Network Carson Valley Community Food Closet - providing for the needs of our community